Time;durP1;ratioP1;P1;durP2;ratioP2;P2;SDS_P1;SDS_P2;PMS_P1;PMS_P2;Temp;Humidity;BMP_temperature;BMP_pressure;BME280_temperature;BME280_humidity;BME280_pressure;Samples;Min_cycle;Max_cycle;Signal;HPM_P1;HPM_P2
2022/08/07 00:00:35;;;;;;;0.50;0.50;;;17.60;99.90;;;;;;5059874;28;20278;-67
2022/08/07 00:03:06;;;;;;;0.90;0.60;;;17.70;99.90;;;;;;5067362;28;20205;-67
2022/08/07 00:05:34;;;;;;;0.70;0.60;;;17.60;99.90;;;;;;5067196;28;20240;-68
2022/08/07 00:08:03;;;;;;;0.93;0.70;;;17.60;99.90;;;;;;5063867;28;20290;-67
2022/08/07 00:10:34;;;;;;;2.03;0.70;;;17.70;99.90;;;;;;5041801;28;20205;-68
2022/08/07 00:13:04;;;;;;;0.70;0.60;;;17.70;99.90;;;;;;5067377;28;20383;-67
2022/08/07 00:15:50;;;;;;;1.37;0.70;;;17.70;99.90;;;;;;5060976;28;20297;-68
2022/08/07 00:18:24;;;;;;;0.57;0.53;;;17.70;99.90;;;;;;5049152;28;20197;-68
2022/08/07 00:20:53;;;;;;;1.23;0.60;;;17.70;99.90;;;;;;5044975;28;20195;-67
2022/08/07 00:23:22;;;;;;;1.17;0.60;;;17.70;99.90;;;;;;5065816;28;20230;-67
2022/08/07 00:25:50;;;;;;;2.00;1.03;;;17.60;99.90;;;;;;5064812;28;20222;-67
2022/08/07 00:28:27;;;;;;;0.73;0.67;;;17.60;99.90;;;;;;5065990;28;20319;-68
2022/08/07 00:31:01;;;;;;;0.70;0.60;;;17.60;99.90;;;;;;5066905;28;20198;-67
2022/08/07 00:33:32;;;;;;;2.10;0.70;;;17.60;99.90;;;;;;5066306;28;20214;-68
2022/08/07 00:35:59;;;;;;;0.50;0.50;;;17.60;99.90;;;;;;5062929;28;20265;-67
2022/08/07 00:38:26;;;;;;;2.80;2.00;;;17.60;99.90;;;;;;5065350;28;20203;-67
2022/08/07 00:40:58;;;;;;;0.60;0.60;;;17.50;99.90;;;;;;5066466;28;20197;-68
2022/08/07 00:43:25;;;;;;;0.90;0.70;;;17.40;99.90;;;;;;5066669;28;20201;-67
2022/08/07 00:46:12;;;;;;;1.40;0.67;;;17.40;99.90;;;;;;5066254;28;20276;-68
2022/08/07 00:48:40;;;;;;;1.20;0.80;;;17.30;99.90;;;;;;5044220;28;20251;-67
2022/08/07 00:51:09;;;;;;;2.30;0.70;;;17.30;99.90;;;;;;5066392;28;20615;-67
2022/08/07 00:53:35;;;;;;;0.73;0.60;;;17.30;99.90;;;;;;5058407;28;20221;-67
2022/08/07 00:56:16;;;;;;;0.60;0.60;;;17.30;99.90;;;;;;5063176;28;20218;-67
2022/08/07 00:58:43;;;;;;;0.60;0.60;;;17.30;99.90;;;;;;5066166;28;20198;-67
2022/08/07 01:01:13;;;;;;;1.20;0.60;;;17.20;99.90;;;;;;5048671;28;20186;-67
2022/08/07 01:03:40;;;;;;;0.53;0.53;;;17.20;99.90;;;;;;5065436;28;20656;-68
2022/08/07 01:06:24;;;;;;;0.87;0.60;;;17.20;99.90;;;;;;5065261;28;20221;-67
2022/08/07 01:08:51;;;;;;;0.60;0.60;;;17.10;99.90;;;;;;5065572;28;20327;-67
2022/08/07 01:11:21;;;;;;;2.17;0.70;;;17.10;99.90;;;;;;5066248;28;20651;-68
2022/08/07 01:14:08;;;;;;;1.07;0.70;;;17.00;99.90;;;;;;5065638;28;20202;-67
2022/08/07 01:16:36;;;;;;;0.60;0.60;;;16.90;99.90;;;;;;5051911;28;20202;-68
2022/08/07 01:19:04;;;;;;;1.53;0.70;;;16.70;99.90;;;;;;5050155;28;20199;-68
2022/08/07 01:21:46;;;;;;;0.70;0.70;;;16.50;99.90;;;;;;5063595;28;20214;-68
2022/08/07 01:24:14;;;;;;;1.77;0.70;;;16.30;99.90;;;;;;5066050;28;20195;-68
2022/08/07 01:26:49;;;;;;;1.03;0.67;;;16.30;99.90;;;;;;5050764;28;20281;-67
2022/08/07 01:29:18;;;;;;;0.60;0.60;;;16.30;99.90;;;;;;5036047;28;20665;-68
2022/08/07 01:31:45;;;;;;;0.70;0.70;;;16.20;99.90;;;;;;5059642;28;20206;-68
2022/08/07 01:34:16;;;;;;;0.50;0.50;;;16.30;99.90;;;;;;5049545;28;20191;-67
2022/08/07 01:36:45;;;;;;;1.07;0.73;;;16.10;99.90;;;;;;5050471;28;20191;-68
2022/08/07 01:39:24;;;;;;;0.60;0.60;;;16.00;99.90;;;;;;5053645;28;20198;-68
2022/08/07 01:42:07;;;;;;;1.60;0.70;;;15.70;99.90;;;;;;5066374;28;20194;-68
2022/08/07 01:44:53;;;;;;;1.97;0.80;;;15.60;99.90;;;;;;5053891;28;20226;-67
2022/08/07 01:47:21;;;;;;;0.90;0.70;;;15.70;99.90;;;;;;5053984;28;20255;-68
2022/08/07 01:50:08;;;;;;;1.00;0.70;;;15.70;99.90;;;;;;5057452;28;20198;-68
2022/08/07 01:52:37;;;;;;;0.80;0.70;;;15.70;99.90;;;;;;5054015;28;20219;-68
2022/08/07 01:55:16;;;;;;;0.67;0.67;;;15.70;99.90;;;;;;5053869;28;20222;-67
2022/08/07 01:57:53;;;;;;;0.90;0.70;;;15.70;99.90;;;;;;5053963;28;20282;-67
2022/08/07 02:00:42;;;;;;;0.60;0.60;;;15.60;99.90;;;;;;5053406;28;20566;-68
2022/08/07 02:03:19;;;;;;;1.37;0.77;;;15.50;99.90;;;;;;5053860;28;20208;-68
2022/08/07 02:05:57;;;;;;;1.97;0.70;;;15.40;99.90;;;;;;5053338;28;20706;-68
2022/08/07 02:08:26;;;;;;;1.20;0.80;;;15.50;99.90;;;;;;5053692;28;20191;-68
2022/08/07 02:10:58;;;;;;;0.80;0.80;;;15.60;99.90;;;;;;5036090;28;20654;-67
2022/08/07 02:13:27;;;;;;;1.17;0.70;;;15.60;99.90;;;;;;5053411;28;20571;-68
2022/08/07 02:16:17;;;;;;;0.90;0.80;;;15.60;99.90;;;;;;5040907;28;20698;-68
2022/08/07 02:18:48;;;;;;;1.07;0.90;;;15.60;99.90;;;;;;5053613;28;20198;-68
2022/08/07 02:21:18;;;;;;;0.80;0.80;;;15.60;99.90;;;;;;5053476;28;20225;-68
2022/08/07 02:23:46;;;;;;;0.70;0.70;;;15.40;99.90;;;;;;5053196;28;20206;-67
2022/08/07 02:26:17;;;;;;;0.97;0.80;;;15.10;99.90;;;;;;5052995;28;20872;-67
2022/08/07 02:29:01;;;;;;;0.73;0.73;;;15.00;99.90;;;;;;5053508;28;20284;-67
2022/08/07 02:31:30;;;;;;;0.70;0.70;;;14.80;99.90;;;;;;5036078;28;20202;-67
2022/08/07 02:34:00;;;;;;;0.80;0.80;;;14.70;99.90;;;;;;5052728;28;20592;-66
2022/08/07 02:36:39;;;;;;;1.20;0.70;;;14.50;99.90;;;;;;5053984;28;20195;-67
2022/08/07 02:39:07;;;;;;;1.10;0.80;;;14.60;99.90;;;;;;5053627;28;20214;-68
2022/08/07 02:41:44;;;;;;;2.13;0.90;;;14.70;99.90;;;;;;5053377;28;20198;-67
2022/08/07 02:44:17;;;;;;;0.80;0.80;;;14.90;99.90;;;;;;5053469;28;20208;-67
2022/08/07 02:46:46;;;;;;;0.60;0.60;;;15.10;99.90;;;;;;5053207;28;20202;-67
2022/08/07 02:49:18;;;;;;;1.33;0.90;;;15.10;99.90;;;;;;5052774;28;20286;-67
2022/08/07 02:52:10;;;;;;;1.80;0.80;;;15.20;99.90;;;;;;5053199;28;20194;-68
2022/08/07 02:54:40;;;;;;;1.07;0.70;;;15.20;99.90;;;;;;5052965;28;20715;-68
2022/08/07 02:57:12;;;;;;;0.70;0.70;;;15.20;99.90;;;;;;5052871;28;20205;-67
2022/08/07 02:59:47;;;;;;;0.70;0.70;;;15.30;99.90;;;;;;5053086;28;20244;-67
2022/08/07 03:02:26;;;;;;;1.07;0.70;;;15.20;99.90;;;;;;5052643;28;20218;-68
2022/08/07 03:04:55;;;;;;;1.47;0.70;;;15.20;99.90;;;;;;5052323;28;20244;-69
2022/08/07 03:07:23;;;;;;;1.00;0.70;;;15.20;99.90;;;;;;5052547;28;20283;-67
2022/08/07 03:10:11;;;;;;;2.37;0.70;;;15.20;99.90;;;;;;5052508;28;20201;-68
2022/08/07 03:12:40;;;;;;;1.20;0.70;;;15.10;99.90;;;;;;5052236;28;20715;-68
2022/08/07 03:15:07;;;;;;;1.67;1.10;;;15.10;99.90;;;;;;5051998;28;20623;-68
2022/08/07 03:17:36;;;;;;;0.87;0.70;;;15.00;99.90;;;;;;5052225;28;20202;-68
2022/08/07 03:20:21;;;;;;;0.90;0.80;;;15.00;99.90;;;;;;5055608;28;20251;-68
2022/08/07 03:22:49;;;;;;;2.00;0.80;;;15.00;99.90;;;;;;5054693;28;20225;-68
2022/08/07 03:25:17;;;;;;;0.80;0.80;;;15.00;99.90;;;;;;5072016;28;20221;-68
2022/08/07 03:27:48;;;;;;;2.40;0.97;;;15.10;99.90;;;;;;5054462;28;20216;-67
2022/08/07 03:30:35;;;;;;;0.70;0.70;;;15.20;99.90;;;;;;5052348;28;20193;-68
2022/08/07 03:33:03;;;;;;;1.53;0.70;;;15.10;99.90;;;;;;5052337;28;20217;-67
2022/08/07 03:35:35;;;;;;;1.00;0.70;;;15.00;99.90;;;;;;5051916;28;20373;-68
2022/08/07 03:38:16;;;;;;;1.23;0.70;;;15.00;99.90;;;;;;5054129;28;20201;-67
2022/08/07 03:40:49;;;;;;;0.93;0.80;;;15.10;99.90;;;;;;5051758;28;20711;-68
2022/08/07 03:43:24;;;;;;;2.30;0.80;;;15.10;99.90;;;;;;5035494;28;20198;-68
2022/08/07 03:45:52;;;;;;;2.23;0.90;;;15.10;99.90;;;;;;5051114;28;20701;-68
2022/08/07 03:48:19;;;;;;;0.73;0.73;;;15.10;99.90;;;;;;5051643;28;20243;-68
2022/08/07 03:50:47;;;;;;;0.93;0.80;;;15.20;99.90;;;;;;5051647;28;20198;-68
2022/08/07 03:53:23;;;;;;;1.40;0.80;;;15.10;99.90;;;;;;5051299;28;20228;-68
2022/08/07 03:56:13;;;;;;;0.90;0.70;;;15.20;99.90;;;;;;5051507;28;20218;-68
2022/08/07 03:58:39;;;;;;;1.00;0.70;;;15.30;99.90;;;;;;5051462;28;20269;-68
2022/08/07 04:01:28;;;;;;;1.20;0.90;;;15.30;99.90;;;;;;5050995;28;20729;-67
2022/08/07 04:03:58;;;;;;;1.30;0.80;;;15.30;99.90;;;;;;5051121;28;20203;-66
2022/08/07 04:06:25;;;;;;;2.67;1.00;;;15.20;99.90;;;;;;5051469;28;20210;-68
2022/08/07 04:09:04;;;;;;;1.43;0.70;;;15.20;99.90;;;;;;5051421;28;20580;-68
2022/08/07 04:11:32;;;;;;;1.63;0.90;;;15.30;99.90;;;;;;5051352;28;20206;-68
2022/08/07 04:14:19;;;;;;;1.73;0.80;;;15.30;99.90;;;;;;5050907;28;20242;-67
2022/08/07 04:17:04;;;;;;;0.70;0.70;;;15.30;99.90;;;;;;5051431;28;20209;-67
2022/08/07 04:19:46;;;;;;;1.43;0.90;;;15.30;99.90;;;;;;5051147;28;20200;-67
2022/08/07 04:22:23;;;;;;;1.37;0.87;;;15.30;99.90;;;;;;5054971;28;20641;-67
2022/08/07 04:24:57;;;;;;;1.00;0.80;;;15.30;99.90;;;;;;5051030;28;20257;-68
2022/08/07 04:27:26;;;;;;;1.03;0.80;;;15.30;99.90;;;;;;5051339;28;20529;-67
2022/08/07 04:29:54;;;;;;;1.73;0.80;;;15.30;99.90;;;;;;5050753;28;20675;-67
2022/08/07 04:32:31;;;;;;;0.70;0.70;;;15.20;99.90;;;;;;5051027;28;20194;-68
2022/08/07 04:35:03;;;;;;;0.90;0.80;;;15.20;99.90;;;;;;5033318;28;20219;-68
2022/08/07 04:37:33;;;;;;;1.33;0.80;;;15.30;99.90;;;;;;5051306;28;20418;-67
2022/08/07 04:40:21;;;;;;;0.60;0.60;;;15.30;99.90;;;;;;5051687;28;20202;-68
2022/08/07 04:42:55;;;;;;;1.13;0.70;;;15.50;99.90;;;;;;5050638;28;20194;-68
2022/08/07 04:45:42;;;;;;;0.67;0.67;;;15.30;99.90;;;;;;5050246;28;20229;-67
2022/08/07 04:48:59;;;;;;;1.10;0.70;;;15.20;99.90;;;;;;5050630;28;20209;-67
2022/08/07 04:52:04;;;;;;;0.60;0.60;;;15.10;99.90;;;;;;5052955;28;20244;-68
2022/08/07 04:54:34;;;;;;;2.80;1.83;;;15.30;99.90;;;;;;5044681;28;20217;-67
2022/08/07 04:57:38;;;;;;;1.07;0.80;;;15.50;99.90;;;;;;5070670;28;20202;-68
2022/08/07 05:00:44;;;;;;;0.80;0.67;;;15.50;99.90;;;;;;5050285;28;20676;-67
2022/08/07 05:03:14;;;;;;;0.70;0.70;;;15.50;99.90;;;;;;5050491;28;20195;-68
2022/08/07 05:06:10;;;;;;;2.50;0.80;;;15.60;99.90;;;;;;5050185;28;20272;-68
2022/08/07 05:09:02;;;;;;;0.80;0.73;;;15.60;99.90;;;;;;5050010;28;20643;-68
2022/08/07 05:11:34;;;;;;;1.00;0.90;;;15.60;99.90;;;;;;5050236;28;20245;-67
2022/08/07 05:14:38;;;;;;;0.77;0.77;;;15.60;99.90;;;;;;5049341;28;20210;-68
2022/08/07 05:17:24;;;;;;;3.60;0.80;;;15.60;99.90;;;;;;5050137;28;20194;-68
2022/08/07 05:20:15;;;;;;;0.50;0.50;;;15.70;99.90;;;;;;5050346;28;20191;-68
2022/08/07 05:22:44;;;;;;;0.53;0.53;;;15.60;99.90;;;;;;5050024;28;20229;-67
2022/08/07 05:25:15;;;;;;;0.93;0.70;;;15.70;99.90;;;;;;5050028;28;20272;-68
2022/08/07 05:28:03;;;;;;;0.60;0.60;;;15.70;99.90;;;;;;5050846;28;20194;-68
2022/08/07 05:30:50;;;;;;;0.80;0.80;;;15.80;99.90;;;;;;5050038;28;20229;-67
2022/08/07 05:33:19;;;;;;;1.07;0.77;;;16.00;99.90;;;;;;5049874;28;20222;-67
2022/08/07 05:35:50;;;;;;;1.13;0.60;;;16.10;99.90;;;;;;5049492;28;20210;-68
2022/08/07 05:38:20;;;;;;;0.90;0.80;;;16.20;99.90;;;;;;5054941;28;20268;-68
2022/08/07 05:41:08;;;;;;;1.53;0.80;;;16.30;99.90;;;;;;5050212;28;20210;-68
2022/08/07 05:43:46;;;;;;;1.30;0.70;;;16.60;99.90;;;;;;5049757;28;20203;-68
2022/08/07 05:46:34;;;;;;;0.70;0.60;;;16.70;99.90;;;;;;5049765;28;20222;-68
2022/08/07 05:49:05;;;;;;;0.90;0.70;;;16.80;99.90;;;;;;5049966;28;20248;-68
2022/08/07 05:51:42;;;;;;;1.03;0.67;;;17.20;99.90;;;;;;5049875;28;20206;-68
2022/08/07 05:54:15;;;;;;;1.00;0.60;;;17.30;99.90;;;;;;5049340;28;20245;-68
2022/08/07 05:57:02;;;;;;;1.60;0.77;;;17.70;99.90;;;;;;5047257;28;20232;-66
2022/08/07 05:59:31;;;;;;;0.50;0.50;;;18.20;99.90;;;;;;5052076;28;20233;-68
2022/08/07 06:02:19;;;;;;;0.60;0.60;;;18.30;99.90;;;;;;5070019;28;20202;-67
2022/08/07 06:04:58;;;;;;;1.53;0.60;;;18.20;99.90;;;;;;5049528;28;20214;-68
2022/08/07 06:07:26;;;;;;;0.50;0.50;;;18.40;99.90;;;;;;5050160;28;20199;-68
2022/08/07 06:10:13;;;;;;;2.07;0.70;;;18.40;99.90;;;;;;5050613;28;20199;-67
2022/08/07 06:12:41;;;;;;;1.10;0.60;;;18.50;99.90;;;;;;5056234;28;20198;-68
2022/08/07 06:15:10;;;;;;;1.03;0.60;;;18.60;99.90;;;;;;5049236;28;20481;-67
2022/08/07 06:17:42;;;;;;;0.50;0.50;;;18.60;99.90;;;;;;5049427;28;20207;-68
2022/08/07 06:20:24;;;;;;;0.60;0.50;;;18.80;99.90;;;;;;5049706;28;20285;-68
2022/08/07 06:23:11;;;;;;;0.60;0.57;;;18.90;99.90;;;;;;5049611;28;20202;-67
2022/08/07 06:25:58;;;;;;;0.60;0.50;;;19.00;99.90;;;;;;5053065;28;20214;-67
2022/08/07 06:28:26;;;;;;;1.83;0.50;;;19.10;99.90;;;;;;5053530;28;20640;-68
2022/08/07 06:30:54;;;;;;;2.00;0.70;;;19.20;99.90;;;;;;5053456;28;20194;-68
2022/08/07 06:33:23;;;;;;;1.13;0.70;;;19.20;99.90;;;;;;5053059;28;20222;-68
2022/08/07 06:35:49;;;;;;;0.67;0.60;;;19.30;99.90;;;;;;5052503;28;20218;-68
2022/08/07 06:38:36;;;;;;;0.40;0.40;;;19.40;99.90;;;;;;5058822;28;20252;-68
2022/08/07 06:41:11;;;;;;;0.93;0.63;;;19.40;99.90;;;;;;5035144;28;20191;-67
2022/08/07 06:43:40;;;;;;;1.60;0.70;;;19.60;99.90;;;;;;5052850;28;20198;-68
2022/08/07 06:46:13;;;;;;;0.40;0.40;;;19.60;99.90;;;;;;5052377;28;20272;-68
2022/08/07 06:48:41;;;;;;;1.60;0.47;;;19.60;99.90;;;;;;5052746;28;20199;-68
2022/08/07 06:51:26;;;;;;;0.83;0.67;;;19.80;99.90;;;;;;5052934;28;20199;-68
2022/08/07 06:54:02;;;;;;;1.03;0.60;;;19.90;99.90;;;;;;5052383;28;20302;-68
2022/08/07 06:56:50;;;;;;;1.07;0.70;;;20.00;99.90;;;;;;5053081;28;20194;-68
2022/08/07 06:59:24;;;;;;;0.50;0.50;;;20.10;99.90;;;;;;5052900;28;20198;-67
2022/08/07 07:02:19;;;;;;;1.60;0.50;;;20.20;99.90;;;;;;5052644;28;20256;-68
2022/08/07 07:05:06;;;;;;;0.70;0.57;;;20.30;99.90;;;;;;5056299;28;20218;-67
2022/08/07 07:07:33;;;;;;;2.70;0.70;;;20.40;99.90;;;;;;5072536;28;20194;-67
2022/08/07 07:10:33;;;;;;;0.97;0.53;;;20.70;99.90;;;;;;5072088;28;20225;-68
2022/08/07 07:13:13;;;;;;;0.70;0.70;;;21.20;99.90;;;;;;5052693;28;20202;-68
2022/08/07 07:15:45;;;;;;;1.05;0.60;;;21.80;99.90;;;;;;5051844;28;20229;-69
2022/08/07 07:18:29;;;;;;;0.77;0.45;;;22.40;99.90;;;;;;5052394;28;20195;-68
2022/08/07 07:21:21;;;;;;;1.10;0.60;;;22.70;99.90;;;;;;5052184;28;20194;-68
2022/08/07 07:23:54;;;;;;;1.85;0.40;;;22.90;99.70;;;;;;5051770;28;20195;-66
2022/08/07 07:26:39;;;;;;;0.95;0.85;;;22.70;99.30;;;;;;5051902;28;20682;-67
2022/08/07 07:29:16;;;;;;;0.60;0.60;;;22.80;99.90;;;;;;5052045;28;20230;-68
2022/08/07 07:32:07;;;;;;;0.55;0.40;;;23.20;99.30;;;;;;5051789;28;20195;-67
2022/08/07 07:34:37;;;;;;;0.70;0.65;;;23.40;98.70;;;;;;5051498;28;20230;-68
2022/08/07 07:37:06;;;;;;;0.65;0.60;;;23.50;98.80;;;;;;5055909;28;20244;-67
2022/08/07 07:39:57;;;;;;;1.10;0.60;;;23.50;98.20;;;;;;5058580;28;20273;-68
2022/08/07 07:42:26;;;;;;;0.65;0.60;;;23.60;98.30;;;;;;5052047;28;20191;-67
2022/08/07 07:45:04;;;;;;;1.50;0.50;;;23.30;98.10;;;;;;5035054;28;20219;-67
2022/08/07 07:47:35;;;;;;;2.78;0.60;;;23.10;98.30;;;;;;5038321;28;20191;-67
2022/08/07 07:50:21;;;;;;;1.17;0.70;;;23.10;98.70;;;;;;5052135;28;20219;-67
2022/08/07 07:53:09;;;;;;;1.20;0.60;;;23.00;99.20;;;;;;5052098;28;20281;-67
2022/08/07 07:55:50;;;;;;;0.90;0.60;;;23.20;98.80;;;;;;5053497;28;20215;-68
2022/08/07 07:58:32;;;;;;;0.70;0.60;;;23.10;98.40;;;;;;5071865;28;20198;-68
2022/08/07 08:01:08;;;;;;;0.98;0.70;;;22.90;98.40;;;;;;5051876;28;20205;-67
2022/08/07 08:03:59;;;;;;;1.20;0.60;;;22.90;99.00;;;;;;5052227;28;20199;-68
2022/08/07 08:06:39;;;;;;;2.22;0.80;;;22.90;98.80;;;;;;5053666;28;20222;-68
2022/08/07 08:09:19;;;;;;;0.50;0.50;;;22.90;98.90;;;;;;5037455;28;20658;-68
2022/08/07 08:11:50;;;;;;;1.52;0.80;;;23.10;98.80;;;;;;5033691;28;20207;-68
2022/08/07 08:14:30;;;;;;;0.50;0.50;;;23.10;98.70;;;;;;5051448;28;20211;-68
2022/08/07 08:17:02;;;;;;;2.25;0.90;;;23.20;98.90;;;;;;5051004;28;20202;-68
2022/08/07 08:19:55;;;;;;;1.98;0.55;;;23.30;98.60;;;;;;5051147;28;20200;-68
2022/08/07 08:28:25;;;;;;;1.95;0.80;;;23.30;98.90;;;;;;5050970;28;20282;-68
2022/08/07 08:31:08;;;;;;;1.55;0.80;;;23.50;98.70;;;;;;5051155;28;20208;-68
2022/08/07 08:33:44;;;;;;;0.90;0.65;;;23.50;98.40;;;;;;5051457;28;20208;-68
2022/08/07 08:36:19;;;;;;;0.88;0.80;;;23.30;98.60;;;;;;5070512;28;20757;-67
2022/08/07 08:38:58;;;;;;;1.92;0.90;;;23.30;98.90;;;;;;5070570;28;20232;-68
2022/08/07 08:41:37;;;;;;;2.05;0.90;;;23.40;99.10;;;;;;5060134;28;20194;-68
2022/08/07 08:44:39;;;;;;;4.22;0.95;;;23.50;99.30;;;;;;5050549;28;20241;-68
2022/08/07 08:47:43;;;;;;;1.10;0.88;;;23.80;99.30;;;;;;5050519;28;20199;-68
2022/08/07 08:50:29;;;;;;;0.95;0.80;;;23.90;99.00;;;;;;5034514;28;20233;-68
2022/08/07 08:53:31;;;;;;;0.90;0.80;;;24.00;98.70;;;;;;5050650;28;20205;-68
2022/08/07 08:56:04;;;;;;;1.30;0.98;;;24.00;99.50;;;;;;5050311;28;20219;-68
2022/08/07 08:58:59;;;;;;;0.80;0.80;;;24.00;99.50;;;;;;5050929;28;20209;-68
2022/08/07 09:02:24;;;;;;;1.58;0.80;;;24.10;98.80;;;;;;5050144;28;20222;-68
2022/08/07 09:05:32;;;;;;;0.90;0.75;;;24.20;99.00;;;;;;5041016;28;20229;-68
2022/08/07 09:08:03;;;;;;;2.53;0.80;;;24.20;98.90;;;;;;5050553;28;20195;-68
2022/08/07 09:11:07;;;;;;;2.03;1.00;;;24.20;98.90;;;;;;5057477;28;20571;-68
2022/08/07 09:13:38;;;;;;;1.30;0.80;;;24.20;98.40;;;;;;5066488;28;20277;-68
2022/08/07 09:16:13;;;;;;;1.50;0.90;;;24.20;99.00;;;;;;5031956;28;20596;-68
2022/08/07 09:19:13;;;;;;;0.80;0.80;;;24.50;98.70;;;;;;5049996;28;20284;-68
2022/08/07 09:22:25;;;;;;;1.35;0.90;;;24.80;98.50;;;;;;5049925;28;20256;-68
2022/08/07 09:25:24;;;;;;;1.30;1.05;;;25.00;98.40;;;;;;5049958;28;20218;-68
2022/08/07 09:27:50;;;;;;;1.13;0.95;;;25.20;98.50;;;;;;5049998;28;20290;-68
2022/08/07 09:30:40;;;;;;;2.05;0.90;;;25.30;98.50;;;;;;5049866;28;20199;-68
2022/08/07 09:33:18;;;;;;;1.20;1.10;;;25.30;98.60;;;;;;5050093;28;20203;-69
2022/08/07 09:36:23;;;;;;;0.90;0.90;;;25.30;98.60;;;;;;5050210;28;20698;-68
2022/08/07 09:39:02;;;;;;;2.47;0.95;;;25.40;98.50;;;;;;5049948;28;20289;-68
2022/08/07 09:41:53;;;;;;;1.83;1.08;;;25.40;98.70;;;;;;5049995;28;20203;-68
2022/08/07 09:44:46;;;;;;;2.50;1.00;;;25.70;98.20;;;;;;5049704;28;20206;-68
2022/08/07 09:48:16;;;;;;;1.38;1.27;;;25.50;98.40;;;;;;5050074;28;20259;-69
2022/08/07 09:51:12;;;;;;;1.58;1.20;;;25.50;99.00;;;;;;5050061;28;20244;-69
2022/08/07 09:54:02;;;;;;;1.02;0.93;;;25.60;97.90;;;;;;5049605;28;21242;-68
2022/08/07 09:57:08;;;;;;;1.48;0.90;;;25.60;98.10;;;;;;5050433;28;20210;-69
2022/08/07 10:00:08;;;;;;;1.60;1.02;;;25.80;98.10;;;;;;5052990;28;20253;-69
2022/08/07 10:02:46;;;;;;;1.17;1.00;;;26.10;98.40;;;;;;5063380;28;20700;-68
2022/08/07 10:05:55;;;;;;;5.05;1.17;;;26.30;98.10;;;;;;5057818;28;20214;-70
2022/08/07 10:08:54;;;;;;;2.35;1.25;;;26.40;97.80;;;;;;5057966;28;20206;-68
2022/08/07 10:11:49;;;;;;;2.78;1.17;;;26.30;97.90;;;;;;5044654;28;20549;-69
2022/08/07 10:14:41;;;;;;;2.60;1.30;;;25.90;98.10;;;;;;5037379;28;20226;-69
2022/08/07 10:17:26;;;;;;;0.82;0.82;;;26.00;98.30;;;;;;5053121;28;20621;-68
2022/08/07 10:20:21;;;;;;;1.20;1.10;;;26.00;97.90;;;;;;5053463;28;20721;-69
2022/08/07 10:23:33;;;;;;;1.33;1.15;;;26.20;98.20;;;;;;5036856;28;20195;-69
2022/08/07 10:26:41;;;;;;;2.45;1.20;;;26.30;98.30;;;;;;5005768;28;20226;-68
2022/08/07 10:29:28;;;;;;;2.05;1.17;;;26.50;97.70;;;;;;5053296;28;20195;-69
2022/08/07 10:32:15;;;;;;;1.10;1.00;;;26.70;96.80;;;;;;5053254;28;20207;-68
2022/08/07 10:35:33;;;;;;;1.05;0.98;;;26.70;97.30;;;;;;5052685;28;20284;-69
2022/08/07 10:38:29;;;;;;;1.23;1.10;;;27.00;97.10;;;;;;5053302;28;20345;-69
2022/08/07 10:41:23;;;;;;;1.38;1.02;;;27.20;97.10;;;;;;5037782;28;20219;-69
2022/08/07 10:44:16;;;;;;;2.03;1.20;;;27.20;96.70;;;;;;5052466;28;20284;-68
2022/08/07 10:47:15;;;;;;;1.10;1.00;;;27.30;96.40;;;;;;5052922;28;20195;-68
2022/08/07 10:49:55;;;;;;;1.02;0.88;;;27.50;95.90;;;;;;5052849;28;20199;-68
2022/08/07 10:52:51;;;;;;;2.05;1.17;;;27.50;94.90;;;;;;5052936;28;20199;-69
2022/08/07 10:55:40;;;;;;;2.22;0.93;;;27.40;94.50;;;;;;5052436;28;20215;-68
2022/08/07 10:58:34;;;;;;;2.72;1.45;;;27.40;94.60;;;;;;5052632;28;20206;-69
2022/08/07 11:01:30;;;;;;;1.45;1.00;;;27.10;94.60;;;;;;5052747;28;20205;-69
2022/08/07 11:04:34;;;;;;;1.45;0.73;;;27.00;95.00;;;;;;5052396;28;20225;-68
2022/08/07 11:07:24;;;;;;;2.30;1.33;;;27.30;95.50;;;;;;5034986;28;20578;-69
2022/08/07 11:10:28;;;;;;;1.00;0.90;;;27.40;94.80;;;;;;5051948;28;20249;-69
2022/08/07 11:13:06;;;;;;;1.20;0.85;;;27.40;94.10;;;;;;5034767;28;20195;-69
2022/08/07 11:15:57;;;;;;;0.95;0.90;;;27.50;94.60;;;;;;5051707;28;20226;-68
2022/08/07 11:18:35;;;;;;;2.45;1.00;;;27.60;94.40;;;;;;5052581;28;20650;-69
2022/08/07 11:21:28;;;;;;;1.70;1.10;;;27.40;93.80;;;;;;5052378;28;20194;-66
2022/08/07 11:24:08;;;;;;;2.22;1.13;;;27.10;94.10;;;;;;5052216;28;20282;-68
2022/08/07 11:26:52;;;;;;;1.88;1.00;;;27.20;94.30;;;;;;5052088;28;20190;-68
2022/08/07 11:29:35;;;;;;;0.85;0.85;;;27.40;94.30;;;;;;5052102;28;20282;-69
2022/08/07 11:32:21;;;;;;;1.00;0.90;;;27.70;94.20;;;;;;5052419;28;20290;-68
2022/08/07 11:35:01;;;;;;;0.82;0.82;;;27.90;93.50;;;;;;5051094;28;20246;-68
2022/08/07 11:37:57;;;;;;;1.55;0.98;;;27.90;93.90;;;;;;5052072;28;20197;-69
2022/08/07 11:40:50;;;;;;;1.23;1.00;;;28.10;93.90;;;;;;5051915;28;20202;-68
2022/08/07 11:43:35;;;;;;;1.35;1.08;;;28.20;94.00;;;;;;5052146;28;20191;-69
2022/08/07 11:46:45;;;;;;;1.65;1.10;;;28.10;93.50;;;;;;5051725;28;20310;-69
2022/08/07 11:49:29;;;;;;;1.00;1.00;;;28.20;93.40;;;;;;5051858;28;20191;-68
2022/08/07 11:52:30;;;;;;;1.85;1.15;;;27.70;93.50;;;;;;5051964;28;20199;-69
2022/08/07 11:55:31;;;;;;;1.08;0.98;;;27.70;94.20;;;;;;5050990;28;20686;-68
2022/08/07 11:58:48;;;;;;;1.08;0.80;;;27.80;93.70;;;;;;5051644;28;20316;-69
2022/08/07 12:01:43;;;;;;;1.70;1.17;;;27.90;93.20;;;;;;5051678;28;20244;-69
2022/08/07 12:04:31;;;;;;;3.67;1.65;;;27.60;93.40;;;;;;5049347;28;20271;-68
2022/08/07 12:07:13;;;;;;;1.30;1.08;;;27.40;93.20;;;;;;5070413;28;20201;-68
2022/08/07 12:10:04;;;;;;;1.55;1.13;;;27.50;93.90;;;;;;5051149;28;20662;-69
2022/08/07 12:12:42;;;;;;;2.38;0.90;;;27.70;93.70;;;;;;5033654;28;20257;-69
2022/08/07 12:15:23;;;;;;;1.20;0.93;;;27.90;93.10;;;;;;5050849;28;20218;-69
2022/08/07 12:18:35;;;;;;;1.00;0.90;;;27.90;93.00;;;;;;5050995;28;20248;-69
2022/08/07 12:21:40;;;;;;;0.98;0.88;;;27.70;93.10;;;;;;5051103;28;20213;-69
2022/08/07 12:24:32;;;;;;;2.10;0.93;;;27.70;93.00;;;;;;5050922;28;20195;-68
2022/08/07 12:27:11;;;;;;;1.05;0.90;;;27.80;93.20;;;;;;5071353;28;20235;-68
2022/08/07 12:30:08;;;;;;;1.00;0.90;;;28.00;92.80;;;;;;5070971;28;20194;-69
2022/08/07 12:32:59;;;;;;;2.35;0.80;;;28.00;92.00;;;;;;5053801;28;20197;-69
2022/08/07 12:35:27;;;;;;;1.05;0.95;;;28.10;92.90;;;;;;5051256;28;20246;-68
2022/08/07 12:38:03;;;;;;;0.77;0.77;;;28.40;92.00;;;;;;5050912;28;20190;-68
2022/08/07 12:40:44;;;;;;;1.50;0.88;;;28.50;91.70;;;;;;5035109;28;20594;-68
2022/08/07 12:43:17;;;;;;;1.20;0.88;;;28.70;92.10;;;;;;5050909;28;20253;-69
2022/08/07 12:46:19;;;;;;;1.13;0.80;;;28.80;91.00;;;;;;5062718;28;20226;-68
2022/08/07 12:49:10;;;;;;;2.25;0.93;;;28.80;91.20;;;;;;5070540;28;20576;-69
2022/08/07 12:52:04;;;;;;;2.15;1.08;;;28.40;91.70;;;;;;5069154;28;20195;-69
2022/08/07 12:55:08;;;;;;;1.27;1.10;;;28.30;91.60;;;;;;5070308;28;20623;-69
2022/08/07 12:57:46;;;;;;;0.88;0.80;;;28.50;91.10;;;;;;5051088;28;20202;-68
2022/08/07 13:00:49;;;;;;;0.90;0.80;;;28.40;90.70;;;;;;5050722;28;20198;-71
2022/08/07 13:03:58;;;;;;;2.90;1.10;;;28.60;90.60;;;;;;5039155;28;20202;-69
2022/08/07 13:06:51;;;;;;;0.90;0.75;;;28.60;90.30;;;;;;5050791;28;20418;-69
2022/08/07 13:10:04;;;;;;;1.02;0.93;;;28.50;90.00;;;;;;5050210;28;20225;-68
2022/08/07 13:13:19;;;;;;;1.23;0.80;;;28.20;89.90;;;;;;5035666;28;20284;-67
2022/08/07 13:16:30;;;;;;;2.67;0.95;;;27.70;90.40;;;;;;5049755;28;20231;-68
2022/08/07 13:19:00;;;;;;;1.55;1.00;;;27.90;91.20;;;;;;5056418;28;20241;-69
2022/08/07 13:21:33;;;;;;;2.72;0.90;;;28.10;91.00;;;;;;5050043;28;20707;-68
2022/08/07 13:24:28;;;;;;;1.75;1.00;;;28.30;90.70;;;;;;5035097;28;20268;-68
2022/08/07 13:27:11;;;;;;;0.80;0.80;;;28.20;90.30;;;;;;5050062;28;20289;-68
2022/08/07 13:29:49;;;;;;;1.75;0.90;;;28.40;90.80;;;;;;5067226;28;20289;-68
2022/08/07 13:32:40;;;;;;;1.40;0.90;;;28.30;90.30;;;;;;5070169;28;20194;-68
2022/08/07 13:35:33;;;;;;;0.80;0.80;;;28.10;90.40;;;;;;5052050;28;20228;-68
2022/08/07 13:38:44;;;;;;;1.48;0.90;;;27.80;90.50;;;;;;5049829;28;20544;-69
2022/08/07 13:41:38;;;;;;;2.25;0.70;;;27.70;90.40;;;;;;5050173;28;20230;-69
2022/08/07 13:44:09;;;;;;;0.98;0.77;;;27.80;90.50;;;;;;5049809;28;20194;-68
2022/08/07 13:46:44;;;;;;;0.70;0.70;;;28.00;91.40;;;;;;5050084;28;20627;-68
2022/08/07 13:49:17;;;;;;;1.95;0.85;;;28.20;90.80;;;;;;5049829;28;20202;-68
2022/08/07 13:52:06;;;;;;;1.65;0.75;;;28.30;90.40;;;;;;5050594;28;20199;-69
2022/08/07 13:54:56;;;;;;;1.15;0.68;;;28.40;90.20;;;;;;5049540;28;20223;-68
2022/08/07 13:57:28;;;;;;;0.57;0.57;;;28.60;90.10;;;;;;5049813;28;20199;-68
2022/08/07 14:00:07;;;;;;;2.83;0.85;;;28.50;89.30;;;;;;5051398;28;20198;-69
2022/08/07 14:02:56;;;;;;;2.70;0.77;;;28.30;89.90;;;;;;5069850;28;20199;-69
2022/08/07 14:05:25;;;;;;;1.17;0.70;;;28.40;90.20;;;;;;5049584;28;20210;-69
2022/08/07 14:08:06;;;;;;;0.80;0.80;;;28.50;89.50;;;;;;5055680;28;20241;-68
2022/08/07 14:10:38;;;;;;;1.00;0.90;;;28.50;89.30;;;;;;5055138;28;20657;-69